sensor_id;sensor_type;location;lat;lon;timestamp;P1;durP1;ratioP1;P2;durP2;ratioP2
4307;SDS011;2167;53.448;9.984;2023-10-09T00:00:53;2.13;;;1.80;;
4307;SDS011;2167;53.448;9.984;2023-10-09T00:03:35;3.47;;;1.60;;
4307;SDS011;2167;53.448;9.984;2023-10-09T00:06:02;2.83;;;1.60;;
4307;SDS011;2167;53.448;9.984;2023-10-09T00:08:29;1.93;;;1.30;;
4307;SDS011;2167;53.448;9.984;2023-10-09T00:10:56;4.63;;;1.70;;
4307;SDS011;2167;53.448;9.984;2023-10-09T00:13:26;3.03;;;1.73;;
4307;SDS011;2167;53.448;9.984;2023-10-09T00:15:56;3.47;;;1.90;;
4307;SDS011;2167;53.448;9.984;2023-10-09T00:18:33;1.33;;;1.20;;
4307;SDS011;2167;53.448;9.984;2023-10-09T00:20:59;8.80;;;2.40;;
4307;SDS011;2167;53.448;9.984;2023-10-09T00:23:38;3.77;;;2.00;;
4307;SDS011;2167;53.448;9.984;2023-10-09T00:26:06;2.13;;;1.93;;
4307;SDS011;2167;53.448;9.984;2023-10-09T00:28:52;3.13;;;2.10;;
4307;SDS011;2167;53.448;9.984;2023-10-09T00:31:18;5.57;;;1.53;;
4307;SDS011;2167;53.448;9.984;2023-10-09T00:33:58;2.60;;;1.87;;
4307;SDS011;2167;53.448;9.984;2023-10-09T00:36:30;3.27;;;1.60;;
4307;SDS011;2167;53.448;9.984;2023-10-09T00:38:58;2.50;;;1.77;;
4307;SDS011;2167;53.448;9.984;2023-10-09T00:41:37;1.43;;;1.30;;
4307;SDS011;2167;53.448;9.984;2023-10-09T00:44:05;2.13;;;1.20;;
4307;SDS011;2167;53.448;9.984;2023-10-09T00:46:32;3.77;;;1.47;;
4307;SDS011;2167;53.448;9.984;2023-10-09T00:49:00;2.27;;;1.57;;
4307;SDS011;2167;53.448;9.984;2023-10-09T00:51:26;1.80;;;1.13;;
4307;SDS011;2167;53.448;9.984;2023-10-09T00:54:01;6.73;;;2.77;;
4307;SDS011;2167;53.448;9.984;2023-10-09T00:56:32;3.50;;;2.73;;
4307;SDS011;2167;53.448;9.984;2023-10-09T00:59:04;4.03;;;2.17;;
4307;SDS011;2167;53.448;9.984;2023-10-09T01:01:38;2.17;;;1.67;;
4307;SDS011;2167;53.448;9.984;2023-10-09T01:04:05;3.83;;;1.90;;
4307;SDS011;2167;53.448;9.984;2023-10-09T01:06:40;2.60;;;1.90;;
4307;SDS011;2167;53.448;9.984;2023-10-09T01:09:14;3.63;;;1.53;;
4307;SDS011;2167;53.448;9.984;2023-10-09T01:11:42;3.10;;;2.10;;
4307;SDS011;2167;53.448;9.984;2023-10-09T01:14:28;5.60;;;2.10;;
4307;SDS011;2167;53.448;9.984;2023-10-09T01:16:56;5.80;;;1.57;;
4307;SDS011;2167;53.448;9.984;2023-10-09T01:19:22;2.87;;;1.60;;
4307;SDS011;2167;53.448;9.984;2023-10-09T01:21:52;2.30;;;1.93;;
4307;SDS011;2167;53.448;9.984;2023-10-09T01:24:19;2.90;;;1.30;;
4307;SDS011;2167;53.448;9.984;2023-10-09T01:26:45;3.20;;;1.63;;
4307;SDS011;2167;53.448;9.984;2023-10-09T01:29:13;9.80;;;1.90;;
4307;SDS011;2167;53.448;9.984;2023-10-09T01:31:43;3.53;;;1.77;;
4307;SDS011;2167;53.448;9.984;2023-10-09T01:34:18;1.90;;;1.70;;
4307;SDS011;2167;53.448;9.984;2023-10-09T01:36:49;5.50;;;1.67;;
4307;SDS011;2167;53.448;9.984;2023-10-09T01:39:15;2.63;;;1.60;;
4307;SDS011;2167;53.448;9.984;2023-10-09T01:41:49;2.80;;;1.30;;
4307;SDS011;2167;53.448;9.984;2023-10-09T01:44:17;3.07;;;2.00;;
4307;SDS011;2167;53.448;9.984;2023-10-09T01:46:44;4.00;;;1.77;;
4307;SDS011;2167;53.448;9.984;2023-10-09T01:49:14;3.80;;;1.80;;
4307;SDS011;2167;53.448;9.984;2023-10-09T01:51:46;1.63;;;1.50;;
4307;SDS011;2167;53.448;9.984;2023-10-09T01:54:13;2.90;;;1.77;;
4307;SDS011;2167;53.448;9.984;2023-10-09T01:56:58;3.20;;;1.43;;
4307;SDS011;2167;53.448;9.984;2023-10-09T01:59:30;1.93;;;1.30;;
4307;SDS011;2167;53.448;9.984;2023-10-09T02:01:56;3.30;;;1.30;;
4307;SDS011;2167;53.448;9.984;2023-10-09T02:04:23;2.73;;;1.60;;
4307;SDS011;2167;53.448;9.984;2023-10-09T02:06:52;3.07;;;2.17;;
4307;SDS011;2167;53.448;9.984;2023-10-09T02:09:18;5.10;;;2.33;;
4307;SDS011;2167;53.448;9.984;2023-10-09T02:11:47;4.03;;;1.83;;
4307;SDS011;2167;53.448;9.984;2023-10-09T02:14:13;4.63;;;1.40;;
4307;SDS011;2167;53.448;9.984;2023-10-09T02:16:48;3.77;;;1.50;;
4307;SDS011;2167;53.448;9.984;2023-10-09T02:19:27;3.27;;;1.57;;
4307;SDS011;2167;53.448;9.984;2023-10-09T02:21:55;1.43;;;1.23;;
4307;SDS011;2167;53.448;9.984;2023-10-09T02:24:25;1.97;;;1.50;;
4307;SDS011;2167;53.448;9.984;2023-10-09T02:27:08;3.53;;;2.27;;
4307;SDS011;2167;53.448;9.984;2023-10-09T02:29:35;1.27;;;1.17;;
4307;SDS011;2167;53.448;9.984;2023-10-09T02:32:03;2.40;;;1.13;;
4307;SDS011;2167;53.448;9.984;2023-10-09T02:34:50;2.03;;;1.37;;
4307;SDS011;2167;53.448;9.984;2023-10-09T02:37:19;3.17;;;1.70;;
4307;SDS011;2167;53.448;9.984;2023-10-09T02:39:50;0.87;;;0.77;;
4307;SDS011;2167;53.448;9.984;2023-10-09T02:42:18;1.40;;;1.30;;
4307;SDS011;2167;53.448;9.984;2023-10-09T02:44:53;4.30;;;1.97;;
4307;SDS011;2167;53.448;9.984;2023-10-09T02:47:20;2.23;;;1.70;;
4307;SDS011;2167;53.448;9.984;2023-10-09T02:49:50;3.30;;;1.77;;
4307;SDS011;2167;53.448;9.984;2023-10-09T02:52:17;3.10;;;1.30;;
4307;SDS011;2167;53.448;9.984;2023-10-09T02:54:57;3.60;;;1.47;;
4307;SDS011;2167;53.448;9.984;2023-10-09T02:57:32;3.87;;;1.90;;
4307;SDS011;2167;53.448;9.984;2023-10-09T03:00:03;4.30;;;1.53;;
4307;SDS011;2167;53.448;9.984;2023-10-09T03:02:33;2.20;;;1.83;;
4307;SDS011;2167;53.448;9.984;2023-10-09T03:04:59;2.60;;;1.40;;
4307;SDS011;2167;53.448;9.984;2023-10-09T03:07:28;2.27;;;1.13;;
4307;SDS011;2167;53.448;9.984;2023-10-09T03:09:54;1.30;;;1.20;;
4307;SDS011;2167;53.448;9.984;2023-10-09T03:12:20;2.77;;;1.17;;
4307;SDS011;2167;53.448;9.984;2023-10-09T03:14:51;2.77;;;1.47;;
4307;SDS011;2167;53.448;9.984;2023-10-09T03:17:20;5.77;;;3.87;;
4307;SDS011;2167;53.448;9.984;2023-10-09T03:19:46;1.80;;;1.40;;
4307;SDS011;2167;53.448;9.984;2023-10-09T03:22:13;2.10;;;1.20;;
4307;SDS011;2167;53.448;9.984;2023-10-09T03:24:39;3.63;;;1.33;;
4307;SDS011;2167;53.448;9.984;2023-10-09T03:27:09;1.30;;;1.20;;
4307;SDS011;2167;53.448;9.984;2023-10-09T03:29:36;2.03;;;1.37;;
4307;SDS011;2167;53.448;9.984;2023-10-09T03:32:02;3.20;;;1.43;;
4307;SDS011;2167;53.448;9.984;2023-10-09T03:34:28;1.27;;;1.07;;
4307;SDS011;2167;53.448;9.984;2023-10-09T03:36:56;1.70;;;1.50;;
4307;SDS011;2167;53.448;9.984;2023-10-09T03:39:29;3.47;;;1.57;;
4307;SDS011;2167;53.448;9.984;2023-10-09T03:41:59;2.67;;;1.30;;
4307;SDS011;2167;53.448;9.984;2023-10-09T03:44:31;3.20;;;1.53;;
4307;SDS011;2167;53.448;9.984;2023-10-09T03:46:59;1.50;;;1.00;;
4307;SDS011;2167;53.448;9.984;2023-10-09T03:49:26;2.80;;;1.50;;
4307;SDS011;2167;53.448;9.984;2023-10-09T03:51:52;3.23;;;1.80;;
4307;SDS011;2167;53.448;9.984;2023-10-09T03:54:18;1.80;;;1.37;;
4307;SDS011;2167;53.448;9.984;2023-10-09T03:56:49;2.30;;;1.20;;
4307;SDS011;2167;53.448;9.984;2023-10-09T03:59:16;2.33;;;1.23;;
4307;SDS011;2167;53.448;9.984;2023-10-09T04:01:42;3.33;;;1.53;;
4307;SDS011;2167;53.448;9.984;2023-10-09T04:04:09;3.27;;;1.20;;
4307;SDS011;2167;53.448;9.984;2023-10-09T04:06:39;1.93;;;1.30;;
4307;SDS011;2167;53.448;9.984;2023-10-09T04:09:06;1.13;;;1.03;;
4307;SDS011;2167;53.448;9.984;2023-10-09T04:11:51;2.83;;;1.50;;
4307;SDS011;2167;53.448;9.984;2023-10-09T04:14:39;2.07;;;1.40;;
4307;SDS011;2167;53.448;9.984;2023-10-09T04:17:22;3.77;;;1.40;;
4307;SDS011;2167;53.448;9.984;2023-10-09T04:19:58;1.67;;;1.07;;
4307;SDS011;2167;53.448;9.984;2023-10-09T04:22:59;1.33;;;1.20;;
4307;SDS011;2167;53.448;9.984;2023-10-09T04:25:29;1.83;;;1.50;;
4307;SDS011;2167;53.448;9.984;2023-10-09T04:28:06;6.53;;;1.20;;
4307;SDS011;2167;53.448;9.984;2023-10-09T04:30:47;4.20;;;1.37;;
4307;SDS011;2167;53.448;9.984;2023-10-09T04:33:20;1.80;;;1.50;;
4307;SDS011;2167;53.448;9.984;2023-10-09T04:36:07;2.27;;;1.00;;
4307;SDS011;2167;53.448;9.984;2023-10-09T04:38:48;2.10;;;1.27;;
4307;SDS011;2167;53.448;9.984;2023-10-09T04:41:32;5.40;;;1.20;;
4307;SDS011;2167;53.448;9.984;2023-10-09T04:44:18;1.83;;;1.20;;
4307;SDS011;2167;53.448;9.984;2023-10-09T04:46:45;1.57;;;1.30;;
4307;SDS011;2167;53.448;9.984;2023-10-09T04:49:30;1.87;;;1.30;;
4307;SDS011;2167;53.448;9.984;2023-10-09T04:52:00;2.80;;;1.17;;
4307;SDS011;2167;53.448;9.984;2023-10-09T04:54:43;2.30;;;1.13;;
4307;SDS011;2167;53.448;9.984;2023-10-09T04:57:48;3.33;;;1.60;;
4307;SDS011;2167;53.448;9.984;2023-10-09T05:00:26;1.47;;;1.10;;
4307;SDS011;2167;53.448;9.984;2023-10-09T05:02:59;1.27;;;1.17;;
4307;SDS011;2167;53.448;9.984;2023-10-09T05:05:49;1.87;;;1.00;;
4307;SDS011;2167;53.448;9.984;2023-10-09T05:08:23;1.20;;;1.10;;
4307;SDS011;2167;53.448;9.984;2023-10-09T05:10:53;2.40;;;1.37;;
4307;SDS011;2167;53.448;9.984;2023-10-09T05:16:06;4.33;;;1.37;;
4307;SDS011;2167;53.448;9.984;2023-10-09T05:18:38;5.63;;;1.70;;
4307;SDS011;2167;53.448;9.984;2023-10-09T05:21:05;2.60;;;1.40;;
4307;SDS011;2167;53.448;9.984;2023-10-09T05:23:37;1.67;;;1.10;;
4307;SDS011;2167;53.448;9.984;2023-10-09T05:26:09;2.17;;;0.90;;
4307;SDS011;2167;53.448;9.984;2023-10-09T05:29:06;2.03;;;1.00;;
4307;SDS011;2167;53.448;9.984;2023-10-09T05:31:53;3.27;;;1.00;;
4307;SDS011;2167;53.448;9.984;2023-10-09T05:34:39;1.03;;;1.00;;
4307;SDS011;2167;53.448;9.984;2023-10-09T05:37:40;3.10;;;1.10;;
4307;SDS011;2167;53.448;9.984;2023-10-09T05:40:09;1.80;;;1.33;;
4307;SDS011;2167;53.448;9.984;2023-10-09T05:42:41;2.50;;;1.10;;
4307;SDS011;2167;53.448;9.984;2023-10-09T05:47:43;1.23;;;1.13;;
4307;SDS011;2167;53.448;9.984;2023-10-09T05:50:21;4.30;;;1.53;;
4307;SDS011;2167;53.448;9.984;2023-10-09T05:52:48;4.93;;;1.50;;
4307;SDS011;2167;53.448;9.984;2023-10-09T05:55:16;2.90;;;1.37;;
4307;SDS011;2167;53.448;9.984;2023-10-09T05:57:49;2.30;;;1.23;;
4307;SDS011;2167;53.448;9.984;2023-10-09T06:00:33;4.13;;;2.13;;
4307;SDS011;2167;53.448;9.984;2023-10-09T06:03:18;1.57;;;1.47;;
4307;SDS011;2167;53.448;9.984;2023-10-09T06:05:54;3.30;;;1.63;;
4307;SDS011;2167;53.448;9.984;2023-10-09T06:08:26;3.93;;;1.33;;
4307;SDS011;2167;53.448;9.984;2023-10-09T06:11:12;1.73;;;1.10;;
4307;SDS011;2167;53.448;9.984;2023-10-09T06:14:00;1.73;;;1.20;;
4307;SDS011;2167;53.448;9.984;2023-10-09T06:16:50;3.30;;;1.50;;
4307;SDS011;2167;53.448;9.984;2023-10-09T06:19:22;4.10;;;2.00;;
4307;SDS011;2167;53.448;9.984;2023-10-09T06:21:52;2.27;;;2.07;;
4307;SDS011;2167;53.448;9.984;2023-10-09T06:24:21;2.23;;;1.53;;
4307;SDS011;2167;53.448;9.984;2023-10-09T06:27:06;1.87;;;1.73;;
4307;SDS011;2167;53.448;9.984;2023-10-09T06:29:32;2.37;;;1.97;;
4307;SDS011;2167;53.448;9.984;2023-10-09T06:32:00;1.73;;;1.40;;
4307;SDS011;2167;53.448;9.984;2023-10-09T06:34:45;4.13;;;2.37;;
4307;SDS011;2167;53.448;9.984;2023-10-09T06:37:16;1.77;;;1.50;;
4307;SDS011;2167;53.448;9.984;2023-10-09T06:39:59;2.50;;;1.20;;
4307;SDS011;2167;53.448;9.984;2023-10-09T06:42:57;2.93;;;1.77;;
4307;SDS011;2167;53.448;9.984;2023-10-09T06:45:29;2.10;;;1.90;;
4307;SDS011;2167;53.448;9.984;2023-10-09T06:48:08;2.70;;;2.00;;
4307;SDS011;2167;53.448;9.984;2023-10-09T06:50:54;2.23;;;1.80;;
4307;SDS011;2167;53.448;9.984;2023-10-09T06:53:21;3.97;;;2.00;;
4307;SDS011;2167;53.448;9.984;2023-10-09T06:55:53;3.60;;;2.17;;
4307;SDS011;2167;53.448;9.984;2023-10-09T06:58:32;3.63;;;1.97;;
4307;SDS011;2167;53.448;9.984;2023-10-09T07:01:07;3.30;;;1.53;;
4307;SDS011;2167;53.448;9.984;2023-10-09T07:04:07;3.00;;;1.83;;
4307;SDS011;2167;53.448;9.984;2023-10-09T07:06:52;4.00;;;1.90;;
4307;SDS011;2167;53.448;9.984;2023-10-09T07:09:21;2.80;;;1.77;;
4307;SDS011;2167;53.448;9.984;2023-10-09T07:11:48;6.73;;;2.07;;
4307;SDS011;2167;53.448;9.984;2023-10-09T07:14:21;6.33;;;2.03;;
4307;SDS011;2167;53.448;9.984;2023-10-09T07:17:09;3.00;;;1.90;;
4307;SDS011;2167;53.448;9.984;2023-10-09T07:19:44;2.00;;;1.20;;
4307;SDS011;2167;53.448;9.984;2023-10-09T07:22:11;2.63;;;1.77;;
4307;SDS011;2167;53.448;9.984;2023-10-09T07:24:46;2.90;;;1.70;;
4307;SDS011;2167;53.448;9.984;2023-10-09T07:27:28;2.20;;;1.43;;
4307;SDS011;2167;53.448;9.984;2023-10-09T07:30:30;2.97;;;1.70;;
4307;SDS011;2167;53.448;9.984;2023-10-09T07:33:00;1.90;;;1.57;;
4307;SDS011;2167;53.448;9.984;2023-10-09T07:35:36;4.70;;;2.20;;
4307;SDS011;2167;53.448;9.984;2023-10-09T07:38:09;2.87;;;1.73;;
4307;SDS011;2167;53.448;9.984;2023-10-09T07:40:35;1.90;;;1.50;;
4307;SDS011;2167;53.448;9.984;2023-10-09T07:43:20;2.43;;;2.10;;
4307;SDS011;2167;53.448;9.984;2023-10-09T07:45:51;1.80;;;1.60;;
4307;SDS011;2167;53.448;9.984;2023-10-09T07:48:23;1.83;;;1.53;;
4307;SDS011;2167;53.448;9.984;2023-10-09T07:51:03;2.67;;;1.63;;
4307;SDS011;2167;53.448;9.984;2023-10-09T07:53:30;1.70;;;1.60;;
4307;SDS011;2167;53.448;9.984;2023-10-09T07:56:08;1.83;;;1.10;;
4307;SDS011;2167;53.448;9.984;2023-10-09T07:58:34;2.37;;;1.73;;
4307;SDS011;2167;53.448;9.984;2023-10-09T08:01:11;5.90;;;1.70;;
4307;SDS011;2167;53.448;9.984;2023-10-09T08:03:42;1.70;;;1.50;;
4307;SDS011;2167;53.448;9.984;2023-10-09T08:06:11;4.20;;;1.80;;
4307;SDS011;2167;53.448;9.984;2023-10-09T08:08:56;3.67;;;2.70;;
4307;SDS011;2167;53.448;9.984;2023-10-09T08:11:43;1.93;;;1.50;;
4307;SDS011;2167;53.448;9.984;2023-10-09T08:14:12;1.10;;;1.00;;
4307;SDS011;2167;53.448;9.984;2023-10-09T08:16:57;1.70;;;1.50;;
4307;SDS011;2167;53.448;9.984;2023-10-09T08:19:49;2.33;;;1.50;;
4307;SDS011;2167;53.448;9.984;2023-10-09T08:22:23;1.70;;;1.37;;
4307;SDS011;2167;53.448;9.984;2023-10-09T08:24:49;3.97;;;1.93;;
4307;SDS011;2167;53.448;9.984;2023-10-09T08:27:24;4.47;;;1.83;;
4307;SDS011;2167;53.448;9.984;2023-10-09T08:29:57;2.93;;;2.07;;
4307;SDS011;2167;53.448;9.984;2023-10-09T08:32:42;2.17;;;1.63;;
4307;SDS011;2167;53.448;9.984;2023-10-09T08:35:13;1.53;;;1.33;;
4307;SDS011;2167;53.448;9.984;2023-10-09T08:37:58;2.63;;;2.30;;
4307;SDS011;2167;53.448;9.984;2023-10-09T08:40:34;2.10;;;1.40;;
4307;SDS011;2167;53.448;9.984;2023-10-09T08:43:22;1.47;;;1.37;;
4307;SDS011;2167;53.448;9.984;2023-10-09T08:45:49;1.53;;;1.43;;
4307;SDS011;2167;53.448;9.984;2023-10-09T08:48:19;1.70;;;1.30;;
4307;SDS011;2167;53.448;9.984;2023-10-09T08:50:47;2.80;;;1.80;;
4307;SDS011;2167;53.448;9.984;2023-10-09T08:53:13;2.80;;;1.73;;
4307;SDS011;2167;53.448;9.984;2023-10-09T08:55:41;4.70;;;2.27;;
4307;SDS011;2167;53.448;9.984;2023-10-09T08:58:07;3.03;;;1.80;;
4307;SDS011;2167;53.448;9.984;2023-10-09T09:00:50;2.53;;;1.40;;
4307;SDS011;2167;53.448;9.984;2023-10-09T09:03:17;3.03;;;1.70;;
4307;SDS011;2167;53.448;9.984;2023-10-09T09:05:46;1.73;;;1.17;;
4307;SDS011;2167;53.448;9.984;2023-10-09T09:08:23;2.27;;;1.90;;
4307;SDS011;2167;53.448;9.984;2023-10-09T09:10:51;3.43;;;1.70;;
4307;SDS011;2167;53.448;9.984;2023-10-09T09:13:18;2.30;;;1.97;;
4307;SDS011;2167;53.448;9.984;2023-10-09T09:15:46;4.20;;;1.67;;
4307;SDS011;2167;53.448;9.984;2023-10-09T09:18:12;1.93;;;1.47;;
4307;SDS011;2167;53.448;9.984;2023-10-09T09:20:42;2.30;;;1.60;;
4307;SDS011;2167;53.448;9.984;2023-10-09T09:23:12;2.53;;;1.60;;
4307;SDS011;2167;53.448;9.984;2023-10-09T09:25:39;2.57;;;1.70;;
4307;SDS011;2167;53.448;9.984;2023-10-09T09:28:24;2.30;;;1.70;;
4307;SDS011;2167;53.448;9.984;2023-10-09T09:30:51;2.83;;;2.63;;
4307;SDS011;2167;53.448;9.984;2023-10-09T09:33:26;1.97;;;1.77;;
4307;SDS011;2167;53.448;9.984;2023-10-09T09:36:04;1.57;;;1.30;;
4307;SDS011;2167;53.448;9.984;2023-10-09T09:38:31;3.90;;;1.60;;
4307;SDS011;2167;53.448;9.984;2023-10-09T09:41:07;1.37;;;1.27;;
4307;SDS011;2167;53.448;9.984;2023-10-09T09:43:33;1.67;;;1.57;;
4307;SDS011;2167;53.448;9.984;2023-10-09T09:46:00;1.93;;;1.60;;
4307;SDS011;2167;53.448;9.984;2023-10-09T09:48:32;2.00;;;1.80;;
4307;SDS011;2167;53.448;9.984;2023-10-09T09:51:04;2.57;;;1.40;;
4307;SDS011;2167;53.448;9.984;2023-10-09T09:53:33;2.87;;;1.67;;
4307;SDS011;2167;53.448;9.984;2023-10-09T09:56:00;1.63;;;1.40;;
4307;SDS011;2167;53.448;9.984;2023-10-09T09:58:28;1.90;;;1.43;;
4307;SDS011;2167;53.448;9.984;2023-10-09T10:01:09;3.00;;;1.83;;
4307;SDS011;2167;53.448;9.984;2023-10-09T10:03:50;1.83;;;1.10;;
4307;SDS011;2167;53.448;9.984;2023-10-09T10:06:20;1.47;;;1.10;;
4307;SDS011;2167;53.448;9.984;2023-10-09T10:08:47;1.37;;;1.27;;
4307;SDS011;2167;53.448;9.984;2023-10-09T10:14:06;1.53;;;1.23;;
4307;SDS011;2167;53.448;9.984;2023-10-09T10:17:19;2.47;;;1.60;;
4307;SDS011;2167;53.448;9.984;2023-10-09T10:20:12;1.53;;;1.30;;
4307;SDS011;2167;53.448;9.984;2023-10-09T10:22:26;1.63;;;1.07;;
4307;SDS011;2167;53.448;9.984;2023-10-09T10:24:52;1.30;;;1.20;;
4307;SDS011;2167;53.448;9.984;2023-10-09T10:27:24;1.70;;;1.23;;
4307;SDS011;2167;53.448;9.984;2023-10-09T10:35:18;1.83;;;1.30;;
4307;SDS011;2167;53.448;9.984;2023-10-09T10:38:02;1.57;;;1.47;;
4307;SDS011;2167;53.448;9.984;2023-10-09T10:40:40;1.27;;;1.17;;
4307;SDS011;2167;53.448;9.984;2023-10-09T10:43:17;1.60;;;1.50;;
4307;SDS011;2167;53.448;9.984;2023-10-09T10:46:02;1.67;;;1.50;;
4307;SDS011;2167;53.448;9.984;2023-10-09T10:48:40;1.30;;;1.20;;
4307;SDS011;2167;53.448;9.984;2023-10-09T10:51:11;3.13;;;1.37;;
4307;SDS011;2167;53.448;9.984;2023-10-09T10:53:52;1.23;;;1.10;;
4307;SDS011;2167;53.448;9.984;2023-10-09T10:56:27;2.00;;;1.80;;
4307;SDS011;2167;53.448;9.984;2023-10-09T10:59:03;1.53;;;1.40;;
4307;SDS011;2167;53.448;9.984;2023-10-09T11:01:32;1.97;;;1.53;;
4307;SDS011;2167;53.448;9.984;2023-10-09T11:04:18;3.03;;;1.33;;
4307;SDS011;2167;53.448;9.984;2023-10-09T11:06:57;2.00;;;0.97;;
4307;SDS011;2167;53.448;9.984;2023-10-09T11:09:56;2.27;;;1.30;;
4307;SDS011;2167;53.448;9.984;2023-10-09T11:12:29;1.67;;;1.20;;
4307;SDS011;2167;53.448;9.984;2023-10-09T11:15:11;1.60;;;1.33;;
4307;SDS011;2167;53.448;9.984;2023-10-09T11:17:59;1.13;;;1.03;;
4307;SDS011;2167;53.448;9.984;2023-10-09T11:20:44;1.90;;;1.00;;
4307;SDS011;2167;53.448;9.984;2023-10-09T11:23:21;1.00;;;0.90;;
4307;SDS011;2167;53.448;9.984;2023-10-09T11:26:14;1.73;;;1.00;;
4307;SDS011;2167;53.448;9.984;2023-10-09T11:31:40;3.00;;;1.20;;
4307;SDS011;2167;53.448;9.984;2023-10-09T11:34:19;1.40;;;1.30;;
4307;SDS011;2167;53.448;9.984;2023-10-09T11:36:55;1.93;;;1.63;;
4307;SDS011;2167;53.448;9.984;2023-10-09T11:39:26;1.60;;;1.30;;
4307;SDS011;2167;53.448;9.984;2023-10-09T11:42:03;2.13;;;1.47;;
4307;SDS011;2167;53.448;9.984;2023-10-09T11:44:39;1.17;;;1.07;;
4307;SDS011;2167;53.448;9.984;2023-10-09T11:47:06;2.37;;;1.13;;
4307;SDS011;2167;53.448;9.984;2023-10-09T11:49:52;1.60;;;1.00;;
4307;SDS011;2167;53.448;9.984;2023-10-09T11:52:28;1.37;;;1.27;;
4307;SDS011;2167;53.448;9.984;2023-10-09T11:55:01;1.13;;;1.00;;
4307;SDS011;2167;53.448;9.984;2023-10-09T11:57:39;1.97;;;1.53;;
4307;SDS011;2167;53.448;9.984;2023-10-09T12:00:05;2.90;;;1.60;;
4307;SDS011;2167;53.448;9.984;2023-10-09T12:03:01;2.10;;;1.20;;
4307;SDS011;2167;53.448;9.984;2023-10-09T12:05:30;1.47;;;1.37;;
4307;SDS011;2167;53.448;9.984;2023-10-09T12:07:56;1.83;;;1.67;;
4307;SDS011;2167;53.448;9.984;2023-10-09T12:10:24;4.40;;;1.67;;
4307;SDS011;2167;53.448;9.984;2023-10-09T12:12:54;2.70;;;1.57;;
4307;SDS011;2167;53.448;9.984;2023-10-09T12:15:23;2.90;;;1.33;;
4307;SDS011;2167;53.448;9.984;2023-10-09T12:17:49;2.17;;;1.67;;
4307;SDS011;2167;53.448;9.984;2023-10-09T12:20:18;2.63;;;1.13;;
4307;SDS011;2167;53.448;9.984;2023-10-09T12:22:59;2.43;;;1.20;;
4307;SDS011;2167;53.448;9.984;2023-10-09T12:25:25;3.10;;;2.03;;
4307;SDS011;2167;53.448;9.984;2023-10-09T12:27:51;2.20;;;1.27;;
4307;SDS011;2167;53.448;9.984;2023-10-09T12:30:22;2.77;;;1.83;;
4307;SDS011;2167;53.448;9.984;2023-10-09T12:32:52;5.53;;;2.20;;
4307;SDS011;2167;53.448;9.984;2023-10-09T12:35:18;1.73;;;1.40;;
4307;SDS011;2167;53.448;9.984;2023-10-09T12:37:45;2.73;;;1.63;;
4307;SDS011;2167;53.448;9.984;2023-10-09T12:40:11;3.03;;;2.33;;
4307;SDS011;2167;53.448;9.984;2023-10-09T12:42:38;1.20;;;1.10;;
4307;SDS011;2167;53.448;9.984;2023-10-09T12:45:05;1.80;;;1.33;;
4307;SDS011;2167;53.448;9.984;2023-10-09T12:47:34;1.90;;;1.50;;
4307;SDS011;2167;53.448;9.984;2023-10-09T12:50:04;1.40;;;1.30;;
4307;SDS011;2167;53.448;9.984;2023-10-09T12:52:35;2.13;;;1.93;;
4307;SDS011;2167;53.448;9.984;2023-10-09T12:55:02;2.67;;;1.40;;
4307;SDS011;2167;53.448;9.984;2023-10-09T12:57:32;1.47;;;1.37;;
4307;SDS011;2167;53.448;9.984;2023-10-09T12:59:58;2.40;;;2.13;;
4307;SDS011;2167;53.448;9.984;2023-10-09T13:02:24;2.50;;;1.97;;
4307;SDS011;2167;53.448;9.984;2023-10-09T13:04:56;3.30;;;2.17;;
4307;SDS011;2167;53.448;9.984;2023-10-09T13:07:22;2.43;;;1.80;;
4307;SDS011;2167;53.448;9.984;2023-10-09T13:09:48;3.00;;;2.17;;
4307;SDS011;2167;53.448;9.984;2023-10-09T13:12:33;2.70;;;2.03;;
4307;SDS011;2167;53.448;9.984;2023-10-09T13:15:03;2.97;;;1.90;;
4307;SDS011;2167;53.448;9.984;2023-10-09T13:17:33;2.77;;;1.67;;
4307;SDS011;2167;53.448;9.984;2023-10-09T13:20:03;4.33;;;1.50;;
4307;SDS011;2167;53.448;9.984;2023-10-09T13:22:39;2.03;;;1.70;;
4307;SDS011;2167;53.448;9.984;2023-10-09T13:25:06;2.17;;;1.67;;
4307;SDS011;2167;53.448;9.984;2023-10-09T13:27:32;3.07;;;2.00;;
4307;SDS011;2167;53.448;9.984;2023-10-09T13:30:02;3.93;;;3.40;;
4307;SDS011;2167;53.448;9.984;2023-10-09T13:32:32;2.50;;;2.30;;
4307;SDS011;2167;53.448;9.984;2023-10-09T13:35:00;3.70;;;2.30;;
4307;SDS011;2167;53.448;9.984;2023-10-09T13:37:30;2.13;;;1.57;;
4307;SDS011;2167;53.448;9.984;2023-10-09T13:40:02;1.23;;;1.13;;
4307;SDS011;2167;53.448;9.984;2023-10-09T13:42:34;2.27;;;1.47;;
4307;SDS011;2167;53.448;9.984;2023-10-09T13:45:01;1.70;;;1.33;;
4307;SDS011;2167;53.448;9.984;2023-10-09T13:47:41;1.30;;;1.20;;
4307;SDS011;2167;53.448;9.984;2023-10-09T13:50:10;2.90;;;1.53;;
4307;SDS011;2167;53.448;9.984;2023-10-09T13:52:36;2.50;;;2.00;;
4307;SDS011;2167;53.448;9.984;2023-10-09T13:55:07;1.50;;;1.40;;
4307;SDS011;2167;53.448;9.984;2023-10-09T13:57:43;2.33;;;1.70;;
4307;SDS011;2167;53.448;9.984;2023-10-09T14:00:11;3.70;;;2.37;;
4307;SDS011;2167;53.448;9.984;2023-10-09T14:02:42;2.40;;;1.87;;
4307;SDS011;2167;53.448;9.984;2023-10-09T14:05:08;14.00;;;10.57;;
4307;SDS011;2167;53.448;9.984;2023-10-09T14:07:34;7.77;;;5.87;;
4307;SDS011;2167;53.448;9.984;2023-10-09T14:10:00;4.10;;;3.27;;
4307;SDS011;2167;53.448;9.984;2023-10-09T14:12:32;2.53;;;2.27;;
4307;SDS011;2167;53.448;9.984;2023-10-09T14:14:59;3.60;;;2.30;;
4307;SDS011;2167;53.448;9.984;2023-10-09T14:17:28;3.70;;;2.40;;
4307;SDS011;2167;53.448;9.984;2023-10-09T14:19:55;2.77;;;2.57;;
4307;SDS011;2167;53.448;9.984;2023-10-09T14:22:41;4.00;;;2.87;;
4307;SDS011;2167;53.448;9.984;2023-10-09T14:25:07;9.90;;;5.37;;
4307;SDS011;2167;53.448;9.984;2023-10-09T14:27:40;8.87;;;5.30;;
4307;SDS011;2167;53.448;9.984;2023-10-09T14:30:06;5.27;;;2.70;;
4307;SDS011;2167;53.448;9.984;2023-10-09T14:32:37;3.27;;;2.27;;
4307;SDS011;2167;53.448;9.984;2023-10-09T14:35:13;3.40;;;3.10;;
4307;SDS011;2167;53.448;9.984;2023-10-09T14:37:39;2.50;;;2.10;;
4307;SDS011;2167;53.448;9.984;2023-10-09T14:40:05;4.67;;;2.70;;
4307;SDS011;2167;53.448;9.984;2023-10-09T14:42:39;4.20;;;3.00;;
4307;SDS011;2167;53.448;9.984;2023-10-09T14:45:09;4.27;;;3.30;;
4307;SDS011;2167;53.448;9.984;2023-10-09T14:47:40;4.50;;;3.30;;
4307;SDS011;2167;53.448;9.984;2023-10-09T14:50:06;6.27;;;3.70;;
4307;SDS011;2167;53.448;9.984;2023-10-09T14:52:34;3.83;;;3.00;;
4307;SDS011;2167;53.448;9.984;2023-10-09T14:55:03;7.70;;;3.67;;
4307;SDS011;2167;53.448;9.984;2023-10-09T14:57:30;5.10;;;3.40;;
4307;SDS011;2167;53.448;9.984;2023-10-09T14:59:59;4.30;;;3.50;;
4307;SDS011;2167;53.448;9.984;2023-10-09T15:02:26;5.43;;;2.73;;
4307;SDS011;2167;53.448;9.984;2023-10-09T15:04:52;4.50;;;3.03;;
4307;SDS011;2167;53.448;9.984;2023-10-09T15:07:18;3.80;;;2.97;;
4307;SDS011;2167;53.448;9.984;2023-10-09T15:09:47;4.20;;;2.30;;
4307;SDS011;2167;53.448;9.984;2023-10-09T15:12:15;6.17;;;2.93;;
4307;SDS011;2167;53.448;9.984;2023-10-09T15:14:41;6.40;;;3.50;;
4307;SDS011;2167;53.448;9.984;2023-10-09T15:17:08;4.57;;;3.20;;
4307;SDS011;2167;53.448;9.984;2023-10-09T15:19:34;5.23;;;2.53;;
4307;SDS011;2167;53.448;9.984;2023-10-09T15:22:00;6.97;;;4.03;;
4307;SDS011;2167;53.448;9.984;2023-10-09T15:24:27;4.70;;;4.30;;
4307;SDS011;2167;53.448;9.984;2023-10-09T15:26:53;6.03;;;4.83;;
4307;SDS011;2167;53.448;9.984;2023-10-09T15:29:22;6.30;;;4.50;;
4307;SDS011;2167;53.448;9.984;2023-10-09T15:31:56;7.23;;;4.50;;
4307;SDS011;2167;53.448;9.984;2023-10-09T15:34:29;5.67;;;4.60;;
4307;SDS011;2167;53.448;9.984;2023-10-09T15:36:56;6.80;;;3.13;;
4307;SDS011;2167;53.448;9.984;2023-10-09T15:39:22;2.17;;;1.97;;
4307;SDS011;2167;53.448;9.984;2023-10-09T15:41:49;2.73;;;1.50;;
4307;SDS011;2167;53.448;9.984;2023-10-09T15:44:15;1.47;;;1.10;;
4307;SDS011;2167;53.448;9.984;2023-10-09T15:46:42;6.37;;;1.07;;
4307;SDS011;2167;53.448;9.984;2023-10-09T15:49:10;4.73;;;3.23;;
4307;SDS011;2167;53.448;9.984;2023-10-09T15:51:38;4.40;;;2.80;;
4307;SDS011;2167;53.448;9.984;2023-10-09T15:54:04;5.63;;;4.33;;
4307;SDS011;2167;53.448;9.984;2023-10-09T15:56:33;5.53;;;3.13;;
4307;SDS011;2167;53.448;9.984;2023-10-09T15:59:00;3.27;;;2.77;;
4307;SDS011;2167;53.448;9.984;2023-10-09T16:01:26;4.50;;;2.70;;
4307;SDS011;2167;53.448;9.984;2023-10-09T16:03:51;6.30;;;3.53;;
4307;SDS011;2167;53.448;9.984;2023-10-09T16:06:18;2.73;;;2.53;;